sensor_id;sensor_type;location;lat;lon;timestamp;P1;durP1;ratioP1;P2;durP2;ratioP2
56997;SDS011;42890;44.244;22.530;2022-07-05T00:00:09;16.42;;;14.90;;
56997;SDS011;42890;44.244;22.530;2022-07-05T00:02:36;21.17;;;13.88;;
56997;SDS011;42890;44.244;22.530;2022-07-05T00:05:02;15.88;;;14.27;;
56997;SDS011;42890;44.244;22.530;2022-07-05T00:07:28;15.95;;;14.38;;
56997;SDS011;42890;44.244;22.530;2022-07-05T00:09:55;19.73;;;15.40;;
56997;SDS011;42890;44.244;22.530;2022-07-05T00:12:23;18.05;;;15.48;;
56997;SDS011;42890;44.244;22.530;2022-07-05T00:14:50;17.38;;;15.63;;
56997;SDS011;42890;44.244;22.530;2022-07-05T00:17:16;16.05;;;14.55;;
56997;SDS011;42890;44.244;22.530;2022-07-05T00:19:42;20.17;;;15.10;;
56997;SDS011;42890;44.244;22.530;2022-07-05T00:22:08;18.02;;;16.17;;
56997;SDS011;42890;44.244;22.530;2022-07-05T00:24:35;17.65;;;16.25;;
56997;SDS011;42890;44.244;22.530;2022-07-05T00:27:01;18.00;;;16.35;;
56997;SDS011;42890;44.244;22.530;2022-07-05T00:29:28;18.63;;;16.70;;
56997;SDS011;42890;44.244;22.530;2022-07-05T00:31:54;17.90;;;16.20;;
56997;SDS011;42890;44.244;22.530;2022-07-05T00:34:20;17.92;;;16.23;;
56997;SDS011;42890;44.244;22.530;2022-07-05T00:36:46;18.75;;;16.60;;
56997;SDS011;42890;44.244;22.530;2022-07-05T00:39:13;18.42;;;16.92;;
56997;SDS011;42890;44.244;22.530;2022-07-05T00:41:39;18.27;;;16.55;;
56997;SDS011;42890;44.244;22.530;2022-07-05T00:44:06;18.17;;;16.48;;
56997;SDS011;42890;44.244;22.530;2022-07-05T00:46:33;17.92;;;16.33;;
56997;SDS011;42890;44.244;22.530;2022-07-05T00:49:00;19.35;;;16.98;;
56997;SDS011;42890;44.244;22.530;2022-07-05T00:51:26;19.02;;;17.48;;
56997;SDS011;42890;44.244;22.530;2022-07-05T00:53:54;18.73;;;16.98;;
56997;SDS011;42890;44.244;22.530;2022-07-05T00:56:20;18.92;;;17.13;;
56997;SDS011;42890;44.244;22.530;2022-07-05T00:58:49;18.70;;;16.90;;
56997;SDS011;42890;44.244;22.530;2022-07-05T01:01:15;21.17;;;16.58;;
56997;SDS011;42890;44.244;22.530;2022-07-05T01:03:42;19.90;;;17.85;;
56997;SDS011;42890;44.244;22.530;2022-07-05T01:06:09;18.00;;;16.23;;
56997;SDS011;42890;44.244;22.530;2022-07-05T01:08:37;17.88;;;16.33;;
56997;SDS011;42890;44.244;22.530;2022-07-05T01:11:04;18.33;;;16.05;;
56997;SDS011;42890;44.244;22.530;2022-07-05T01:13:30;17.38;;;15.57;;
56997;SDS011;42890;44.244;22.530;2022-07-05T01:15:56;17.63;;;16.13;;
56997;SDS011;42890;44.244;22.530;2022-07-05T01:18:23;18.50;;;16.73;;
56997;SDS011;42890;44.244;22.530;2022-07-05T01:20:49;18.23;;;16.63;;
56997;SDS011;42890;44.244;22.530;2022-07-05T01:23:16;17.98;;;15.88;;
56997;SDS011;42890;44.244;22.530;2022-07-05T01:25:43;17.63;;;16.08;;
56997;SDS011;42890;44.244;22.530;2022-07-05T01:28:10;18.20;;;16.15;;
56997;SDS011;42890;44.244;22.530;2022-07-05T01:30:36;17.90;;;16.30;;
56997;SDS011;42890;44.244;22.530;2022-07-05T01:33:04;17.95;;;16.05;;
56997;SDS011;42890;44.244;22.530;2022-07-05T01:35:30;17.88;;;16.38;;
56997;SDS011;42890;44.244;22.530;2022-07-05T01:37:56;17.83;;;16.05;;
56997;SDS011;42890;44.244;22.530;2022-07-05T01:40:23;17.63;;;15.85;;
56997;SDS011;42890;44.244;22.530;2022-07-05T01:42:49;16.98;;;15.48;;
56997;SDS011;42890;44.244;22.530;2022-07-05T01:45:16;19.08;;;17.17;;
56997;SDS011;42890;44.244;22.530;2022-07-05T01:48:03;19.30;;;17.60;;
56997;SDS011;42890;44.244;22.530;2022-07-05T01:50:31;19.45;;;16.90;;
56997;SDS011;42890;44.244;22.530;2022-07-05T01:52:59;20.48;;;16.80;;
56997;SDS011;42890;44.244;22.530;2022-07-05T01:55:26;19.23;;;17.60;;
56997;SDS011;42890;44.244;22.530;2022-07-05T01:57:52;24.40;;;16.27;;
56997;SDS011;42890;44.244;22.530;2022-07-05T02:00:18;18.02;;;16.42;;
56997;SDS011;42890;44.244;22.530;2022-07-05T02:02:44;18.55;;;16.73;;
56997;SDS011;42890;44.244;22.530;2022-07-05T02:05:12;19.00;;;17.05;;
56997;SDS011;42890;44.244;22.530;2022-07-05T02:07:48;18.45;;;16.83;;
56997;SDS011;42890;44.244;22.530;2022-07-05T02:10:14;19.27;;;17.35;;
56997;SDS011;42890;44.244;22.530;2022-07-05T02:12:41;21.77;;;17.42;;
56997;SDS011;42890;44.244;22.530;2022-07-05T02:15:07;18.98;;;17.02;;
56997;SDS011;42890;44.244;22.530;2022-07-05T02:17:33;18.05;;;16.38;;
56997;SDS011;42890;44.244;22.530;2022-07-05T02:19:59;18.20;;;16.35;;
56997;SDS011;42890;44.244;22.530;2022-07-05T02:22:25;19.33;;;16.58;;
56997;SDS011;42890;44.244;22.530;2022-07-05T02:24:51;17.77;;;16.30;;
56997;SDS011;42890;44.244;22.530;2022-07-05T02:27:17;17.60;;;16.10;;
56997;SDS011;42890;44.244;22.530;2022-07-05T02:29:44;19.88;;;16.50;;
56997;SDS011;42890;44.244;22.530;2022-07-05T02:32:10;18.63;;;16.83;;
56997;SDS011;42890;44.244;22.530;2022-07-05T02:34:36;19.05;;;17.27;;
56997;SDS011;42890;44.244;22.530;2022-07-05T02:37:02;18.13;;;16.52;;
56997;SDS011;42890;44.244;22.530;2022-07-05T02:39:28;19.20;;;17.60;;
56997;SDS011;42890;44.244;22.530;2022-07-05T02:41:55;20.63;;;17.45;;
56997;SDS011;42890;44.244;22.530;2022-07-05T02:44:21;19.35;;;17.58;;
56997;SDS011;42890;44.244;22.530;2022-07-05T02:46:47;18.63;;;16.90;;
56997;SDS011;42890;44.244;22.530;2022-07-05T02:49:13;21.67;;;18.33;;
56997;SDS011;42890;44.244;22.530;2022-07-05T02:51:40;21.02;;;18.80;;
56997;SDS011;42890;44.244;22.530;2022-07-05T02:54:06;20.15;;;18.27;;
56997;SDS011;42890;44.244;22.530;2022-07-05T02:56:32;20.65;;;18.58;;
56997;SDS011;42890;44.244;22.530;2022-07-05T02:58:58;20.42;;;18.30;;
56997;SDS011;42890;44.244;22.530;2022-07-05T03:01:24;20.40;;;18.02;;
56997;SDS011;42890;44.244;22.530;2022-07-05T03:03:50;19.70;;;18.10;;
56997;SDS011;42890;44.244;22.530;2022-07-05T03:06:17;18.85;;;17.20;;
56997;SDS011;42890;44.244;22.530;2022-07-05T03:08:43;21.08;;;17.73;;
56997;SDS011;42890;44.244;22.530;2022-07-05T03:11:09;19.48;;;17.50;;
56997;SDS011;42890;44.244;22.530;2022-07-05T03:13:35;22.75;;;18.10;;
56997;SDS011;42890;44.244;22.530;2022-07-05T03:16:01;19.90;;;17.90;;
56997;SDS011;42890;44.244;22.530;2022-07-05T03:18:27;25.60;;;19.23;;
56997;SDS011;42890;44.244;22.530;2022-07-05T03:20:53;19.90;;;18.10;;
56997;SDS011;42890;44.244;22.530;2022-07-05T03:23:19;20.30;;;18.42;;
56997;SDS011;42890;44.244;22.530;2022-07-05T03:25:46;19.05;;;17.33;;
56997;SDS011;42890;44.244;22.530;2022-07-05T03:28:12;19.23;;;17.40;;
56997;SDS011;42890;44.244;22.530;2022-07-05T03:30:38;17.75;;;16.00;;
56997;SDS011;42890;44.244;22.530;2022-07-05T03:33:04;20.20;;;16.38;;
56997;SDS011;42890;44.244;22.530;2022-07-05T03:35:30;17.35;;;15.75;;
56997;SDS011;42890;44.244;22.530;2022-07-05T03:37:56;17.65;;;16.08;;
56997;SDS011;42890;44.244;22.530;2022-07-05T03:40:22;17.73;;;16.13;;
56997;SDS011;42890;44.244;22.530;2022-07-05T03:42:49;23.48;;;16.60;;
56997;SDS011;42890;44.244;22.530;2022-07-05T03:45:15;18.35;;;16.63;;
56997;SDS011;42890;44.244;22.530;2022-07-05T03:47:41;18.77;;;17.08;;
56997;SDS011;42890;44.244;22.530;2022-07-05T03:50:07;18.67;;;17.17;;
56997;SDS011;42890;44.244;22.530;2022-07-05T03:52:33;34.08;;;29.25;;
56997;SDS011;42890;44.244;22.530;2022-07-05T03:54:59;20.20;;;18.33;;
56997;SDS011;42890;44.244;22.530;2022-07-05T03:57:26;21.67;;;19.67;;
56997;SDS011;42890;44.244;22.530;2022-07-05T03:59:52;22.60;;;20.60;;
56997;SDS011;42890;44.244;22.530;2022-07-05T04:02:18;23.10;;;20.92;;
56997;SDS011;42890;44.244;22.530;2022-07-05T04:04:44;23.65;;;21.27;;
56997;SDS011;42890;44.244;22.530;2022-07-05T04:07:10;25.08;;;22.95;;
56997;SDS011;42890;44.244;22.530;2022-07-05T04:09:36;22.88;;;20.88;;
56997;SDS011;42890;44.244;22.530;2022-07-05T04:12:03;24.63;;;22.17;;
56997;SDS011;42890;44.244;22.530;2022-07-05T04:14:30;23.42;;;21.05;;
56997;SDS011;42890;44.244;22.530;2022-07-05T04:16:56;23.10;;;20.98;;
56997;SDS011;42890;44.244;22.530;2022-07-05T04:19:22;22.85;;;20.67;;
56997;SDS011;42890;44.244;22.530;2022-07-05T04:21:48;21.83;;;19.77;;
56997;SDS011;42890;44.244;22.530;2022-07-05T04:24:14;22.15;;;19.90;;
56997;SDS011;42890;44.244;22.530;2022-07-05T04:26:40;21.95;;;19.98;;
56997;SDS011;42890;44.244;22.530;2022-07-05T04:29:07;21.67;;;19.60;;
56997;SDS011;42890;44.244;22.530;2022-07-05T04:31:33;21.90;;;19.52;;
56997;SDS011;42890;44.244;22.530;2022-07-05T04:34:00;20.52;;;18.52;;
56997;SDS011;42890;44.244;22.530;2022-07-05T04:36:26;20.80;;;18.40;;
56997;SDS011;42890;44.244;22.530;2022-07-05T04:38:52;20.30;;;18.65;;
56997;SDS011;42890;44.244;22.530;2022-07-05T04:41:18;26.48;;;18.17;;
56997;SDS011;42890;44.244;22.530;2022-07-05T04:43:44;19.63;;;17.92;;
56997;SDS011;42890;44.244;22.530;2022-07-05T04:46:10;19.67;;;17.65;;
56997;SDS011;42890;44.244;22.530;2022-07-05T04:48:37;19.38;;;17.35;;
56997;SDS011;42890;44.244;22.530;2022-07-05T04:51:03;20.25;;;17.52;;
56997;SDS011;42890;44.244;22.530;2022-07-05T04:53:29;19.95;;;17.58;;
56997;SDS011;42890;44.244;22.530;2022-07-05T04:55:55;19.38;;;17.42;;
56997;SDS011;42890;44.244;22.530;2022-07-05T04:58:21;19.35;;;17.27;;
56997;SDS011;42890;44.244;22.530;2022-07-05T05:00:47;19.13;;;17.38;;
56997;SDS011;42890;44.244;22.530;2022-07-05T05:03:14;19.00;;;17.15;;
56997;SDS011;42890;44.244;22.530;2022-07-05T05:05:40;20.02;;;17.98;;
56997;SDS011;42890;44.244;22.530;2022-07-05T05:08:06;18.75;;;17.17;;
56997;SDS011;42890;44.244;22.530;2022-07-05T05:10:32;19.85;;;16.70;;
56997;SDS011;42890;44.244;22.530;2022-07-05T05:12:58;18.45;;;16.85;;
56997;SDS011;42890;44.244;22.530;2022-07-05T05:15:24;17.88;;;16.10;;
56997;SDS011;42890;44.244;22.530;2022-07-05T05:17:50;18.60;;;15.27;;
56997;SDS011;42890;44.244;22.530;2022-07-05T05:20:17;18.08;;;15.30;;
56997;SDS011;42890;44.244;22.530;2022-07-05T05:22:44;16.85;;;15.13;;
56997;SDS011;42890;44.244;22.530;2022-07-05T05:25:11;15.77;;;14.05;;
56997;SDS011;42890;44.244;22.530;2022-07-05T05:27:41;19.00;;;15.30;;
56997;SDS011;42890;44.244;22.530;2022-07-05T05:30:07;16.83;;;14.77;;
56997;SDS011;42890;44.244;22.530;2022-07-05T05:32:34;16.30;;;14.70;;
56997;SDS011;42890;44.244;22.530;2022-07-05T05:35:00;16.13;;;14.35;;
56997;SDS011;42890;44.244;22.530;2022-07-05T05:37:26;16.63;;;14.48;;
56997;SDS011;42890;44.244;22.530;2022-07-05T05:39:52;15.93;;;14.38;;
56997;SDS011;42890;44.244;22.530;2022-07-05T05:42:18;17.40;;;15.18;;
56997;SDS011;42890;44.244;22.530;2022-07-05T05:44:44;19.13;;;13.88;;
56997;SDS011;42890;44.244;22.530;2022-07-05T05:47:10;15.27;;;13.90;;
56997;SDS011;42890;44.244;22.530;2022-07-05T05:49:37;16.23;;;14.75;;
56997;SDS011;42890;44.244;22.530;2022-07-05T05:52:03;16.20;;;14.70;;
56997;SDS011;42890;44.244;22.530;2022-07-05T05:54:29;19.52;;;14.57;;
56997;SDS011;42890;44.244;22.530;2022-07-05T05:56:55;15.93;;;14.32;;
56997;SDS011;42890;44.244;22.530;2022-07-05T05:59:21;23.60;;;15.65;;
56997;SDS011;42890;44.244;22.530;2022-07-05T06:01:47;16.27;;;14.80;;
56997;SDS011;42890;44.244;22.530;2022-07-05T06:04:13;16.88;;;14.75;;
56997;SDS011;42890;44.244;22.530;2022-07-05T06:06:40;18.23;;;15.18;;
56997;SDS011;42890;44.244;22.530;2022-07-05T06:09:06;17.17;;;15.48;;
56997;SDS011;42890;44.244;22.530;2022-07-05T06:11:32;18.80;;;14.98;;
56997;SDS011;42890;44.244;22.530;2022-07-05T06:13:58;18.70;;;14.63;;
56997;SDS011;42890;44.244;22.530;2022-07-05T06:16:24;19.02;;;14.15;;
56997;SDS011;42890;44.244;22.530;2022-07-05T06:18:50;17.08;;;14.43;;
56997;SDS011;42890;44.244;22.530;2022-07-05T06:21:16;17.20;;;13.65;;
56997;SDS011;42890;44.244;22.530;2022-07-05T06:23:42;15.75;;;14.32;;
56997;SDS011;42890;44.244;22.530;2022-07-05T06:26:09;17.65;;;13.52;;
56997;SDS011;42890;44.244;22.530;2022-07-05T06:28:35;16.00;;;14.30;;
56997;SDS011;42890;44.244;22.530;2022-07-05T06:31:01;14.40;;;13.10;;
56997;SDS011;42890;44.244;22.530;2022-07-05T06:33:27;14.52;;;13.20;;
56997;SDS011;42890;44.244;22.530;2022-07-05T06:35:53;17.42;;;13.77;;
56997;SDS011;42890;44.244;22.530;2022-07-05T06:38:19;15.95;;;14.40;;
56997;SDS011;42890;44.244;22.530;2022-07-05T06:40:45;17.13;;;14.50;;
56997;SDS011;42890;44.244;22.530;2022-07-05T06:43:12;15.80;;;14.15;;
56997;SDS011;42890;44.244;22.530;2022-07-05T06:45:39;15.48;;;13.90;;
56997;SDS011;42890;44.244;22.530;2022-07-05T06:48:10;15.57;;;13.95;;
56997;SDS011;42890;44.244;22.530;2022-07-05T06:50:37;16.65;;;14.15;;
56997;SDS011;42890;44.244;22.530;2022-07-05T06:53:04;25.90;;;14.15;;
56997;SDS011;42890;44.244;22.530;2022-07-05T06:55:30;16.40;;;13.90;;
56997;SDS011;42890;44.244;22.530;2022-07-05T06:58:07;17.13;;;14.80;;
56997;SDS011;42890;44.244;22.530;2022-07-05T07:00:33;15.70;;;14.07;;
56997;SDS011;42890;44.244;22.530;2022-07-05T07:03:00;15.00;;;13.52;;
56997;SDS011;42890;44.244;22.530;2022-07-05T07:05:26;14.90;;;13.40;;
56997;SDS011;42890;44.244;22.530;2022-07-05T07:07:52;16.25;;;13.43;;
56997;SDS011;42890;44.244;22.530;2022-07-05T07:10:37;15.40;;;13.90;;
56997;SDS011;42890;44.244;22.530;2022-07-05T07:13:04;15.43;;;13.65;;
56997;SDS011;42890;44.244;22.530;2022-07-05T07:15:30;18.35;;;14.20;;
56997;SDS011;42890;44.244;22.530;2022-07-05T07:17:57;15.52;;;14.10;;
56997;SDS011;42890;44.244;22.530;2022-07-05T07:20:23;16.00;;;12.93;;
56997;SDS011;42890;44.244;22.530;2022-07-05T07:22:49;14.43;;;13.05;;
56997;SDS011;42890;44.244;22.530;2022-07-05T07:25:15;19.10;;;13.27;;
56997;SDS011;42890;44.244;22.530;2022-07-05T07:27:43;15.52;;;13.40;;
56997;SDS011;42890;44.244;22.530;2022-07-05T07:30:10;15.27;;;13.77;;
56997;SDS011;42890;44.244;22.530;2022-07-05T07:32:37;14.95;;;13.27;;
56997;SDS011;42890;44.244;22.530;2022-07-05T07:35:03;15.10;;;13.80;;
56997;SDS011;42890;44.244;22.530;2022-07-05T07:37:29;18.80;;;14.15;;
56997;SDS011;42890;44.244;22.530;2022-07-05T07:39:55;18.55;;;13.85;;
56997;SDS011;42890;44.244;22.530;2022-07-05T07:42:22;14.70;;;13.15;;
56997;SDS011;42890;44.244;22.530;2022-07-05T07:44:48;15.07;;;13.65;;
56997;SDS011;42890;44.244;22.530;2022-07-05T07:47:14;15.68;;;13.10;;
56997;SDS011;42890;44.244;22.530;2022-07-05T07:49:40;14.15;;;12.75;;
56997;SDS011;42890;44.244;22.530;2022-07-05T07:52:06;15.30;;;13.77;;
56997;SDS011;42890;44.244;22.530;2022-07-05T07:54:33;14.60;;;12.18;;
56997;SDS011;42890;44.244;22.530;2022-07-05T07:56:59;14.93;;;12.63;;
56997;SDS011;42890;44.244;22.530;2022-07-05T07:59:27;13.27;;;11.27;;
56997;SDS011;42890;44.244;22.530;2022-07-05T08:01:53;13.07;;;11.57;;
56997;SDS011;42890;44.244;22.530;2022-07-05T08:04:19;14.75;;;11.50;;
56997;SDS011;42890;44.244;22.530;2022-07-05T08:06:45;13.02;;;11.38;;
56997;SDS011;42890;44.244;22.530;2022-07-05T08:09:11;16.63;;;11.02;;
56997;SDS011;42890;44.244;22.530;2022-07-05T08:11:38;12.90;;;11.65;;
56997;SDS011;42890;44.244;22.530;2022-07-05T08:14:04;16.52;;;11.60;;
56997;SDS011;42890;44.244;22.530;2022-07-05T08:16:30;13.23;;;11.18;;
56997;SDS011;42890;44.244;22.530;2022-07-05T08:18:56;13.52;;;11.70;;
56997;SDS011;42890;44.244;22.530;2022-07-05T08:21:41;14.98;;;12.05;;
56997;SDS011;42890;44.244;22.530;2022-07-05T08:24:08;12.68;;;11.52;;
56997;SDS011;42890;44.244;22.530;2022-07-05T08:26:35;13.38;;;10.40;;
56997;SDS011;42890;44.244;22.530;2022-07-05T08:29:02;11.98;;;10.80;;
56997;SDS011;42890;44.244;22.530;2022-07-05T08:31:30;12.65;;;10.52;;
56997;SDS011;42890;44.244;22.530;2022-07-05T08:33:56;12.40;;;10.55;;
56997;SDS011;42890;44.244;22.530;2022-07-05T08:36:22;11.88;;;10.77;;
56997;SDS011;42890;44.244;22.530;2022-07-05T08:38:49;11.35;;;10.07;;
56997;SDS011;42890;44.244;22.530;2022-07-05T08:41:17;13.65;;;10.18;;
56997;SDS011;42890;44.244;22.530;2022-07-05T08:43:44;11.38;;;10.25;;
56997;SDS011;42890;44.244;22.530;2022-07-05T08:46:11;19.20;;;9.95;;
56997;SDS011;42890;44.244;22.530;2022-07-05T08:48:37;10.85;;;9.80;;
56997;SDS011;42890;44.244;22.530;2022-07-05T08:51:10;13.73;;;10.60;;
56997;SDS011;42890;44.244;22.530;2022-07-05T08:53:37;14.40;;;9.52;;
56997;SDS011;42890;44.244;22.530;2022-07-05T08:56:03;10.90;;;9.48;;
56997;SDS011;42890;44.244;22.530;2022-07-05T08:58:30;12.10;;;10.00;;
56997;SDS011;42890;44.244;22.530;2022-07-05T09:00:56;16.55;;;9.82;;
56997;SDS011;42890;44.244;22.530;2022-07-05T09:03:23;10.63;;;9.43;;
56997;SDS011;42890;44.244;22.530;2022-07-05T09:05:53;11.05;;;8.82;;
56997;SDS011;42890;44.244;22.530;2022-07-05T09:08:21;11.65;;;9.25;;
56997;SDS011;42890;44.244;22.530;2022-07-05T09:10:48;14.02;;;9.20;;
56997;SDS011;42890;44.244;22.530;2022-07-05T09:13:16;12.25;;;9.07;;
56997;SDS011;42890;44.244;22.530;2022-07-05T09:15:42;11.95;;;9.23;;
56997;SDS011;42890;44.244;22.530;2022-07-05T09:18:09;15.98;;;9.13;;
56997;SDS011;42890;44.244;22.530;2022-07-05T09:20:36;9.43;;;8.52;;
56997;SDS011;42890;44.244;22.530;2022-07-05T09:23:02;13.15;;;9.95;;
56997;SDS011;42890;44.244;22.530;2022-07-05T09:25:31;13.70;;;9.45;;
56997;SDS011;42890;44.244;22.530;2022-07-05T09:27:59;9.65;;;8.18;;
56997;SDS011;42890;44.244;22.530;2022-07-05T09:30:30;9.98;;;8.98;;
56997;SDS011;42890;44.244;22.530;2022-07-05T09:33:12;13.40;;;8.18;;
56997;SDS011;42890;44.244;22.530;2022-07-05T09:35:41;13.27;;;8.43;;
56997;SDS011;42890;44.244;22.530;2022-07-05T09:38:19;9.82;;;8.02;;
56997;SDS011;42890;44.244;22.530;2022-07-05T09:40:47;11.50;;;8.48;;
56997;SDS011;42890;44.244;22.530;2022-07-05T09:43:14;11.02;;;7.65;;
56997;SDS011;42890;44.244;22.530;2022-07-05T09:45:50;13.68;;;8.07;;
56997;SDS011;42890;44.244;22.530;2022-07-05T09:48:16;9.85;;;8.02;;
56997;SDS011;42890;44.244;22.530;2022-07-05T09:50:42;9.27;;;7.80;;
56997;SDS011;42890;44.244;22.530;2022-07-05T09:53:10;18.48;;;7.95;;
56997;SDS011;42890;44.244;22.530;2022-07-05T09:55:37;10.00;;;7.70;;
56997;SDS011;42890;44.244;22.530;2022-07-05T09:58:04;10.52;;;7.85;;
56997;SDS011;42890;44.244;22.530;2022-07-05T10:00:30;9.32;;;7.55;;
56997;SDS011;42890;44.244;22.530;2022-07-05T10:02:57;13.05;;;7.28;;
56997;SDS011;42890;44.244;22.530;2022-07-05T10:05:30;11.13;;;8.10;;
56997;SDS011;42890;44.244;22.530;2022-07-05T10:07:57;14.77;;;7.95;;
56997;SDS011;42890;44.244;22.530;2022-07-05T10:10:25;9.32;;;7.45;;
56997;SDS011;42890;44.244;22.530;2022-07-05T10:12:52;7.65;;;6.95;;
56997;SDS011;42890;44.244;22.530;2022-07-05T10:15:20;11.55;;;7.35;;
56997;SDS011;42890;44.244;22.530;2022-07-05T10:20:37;18.30;;;7.65;;
56997;SDS011;42890;44.244;22.530;2022-07-05T10:23:08;12.38;;;7.18;;
56997;SDS011;42890;44.244;22.530;2022-07-05T10:25:35;8.40;;;7.10;;
56997;SDS011;42890;44.244;22.530;2022-07-05T10:28:03;11.38;;;7.68;;
56997;SDS011;42890;44.244;22.530;2022-07-05T10:30:29;12.90;;;7.60;;
56997;SDS011;42890;44.244;22.530;2022-07-05T10:32:56;8.27;;;6.88;;
56997;SDS011;42890;44.244;22.530;2022-07-05T10:35:22;9.32;;;7.00;;
56997;SDS011;42890;44.244;22.530;2022-07-05T10:37:49;10.70;;;6.50;;
56997;SDS011;42890;44.244;22.530;2022-07-05T10:40:16;10.32;;;6.53;;
56997;SDS011;42890;44.244;22.530;2022-07-05T10:42:45;7.93;;;6.72;;
56997;SDS011;42890;44.244;22.530;2022-07-05T10:53:21;10.50;;;6.38;;
56997;SDS011;42890;44.244;22.530;2022-07-05T11:00:43;8.15;;;6.00;;
56997;SDS011;42890;44.244;22.530;2022-07-05T11:06:08;9.32;;;6.35;;
56997;SDS011;42890;44.244;22.530;2022-07-05T11:11:33;9.88;;;6.38;;
56997;SDS011;42890;44.244;22.530;2022-07-05T11:14:00;8.02;;;6.65;;
56997;SDS011;42890;44.244;22.530;2022-07-05T11:16:30;8.70;;;6.20;;
56997;SDS011;42890;44.244;22.530;2022-07-05T11:19:06;13.38;;;5.97;;
56997;SDS011;42890;44.244;22.530;2022-07-05T11:21:33;8.90;;;6.38;;
56997;SDS011;42890;44.244;22.530;2022-07-05T11:26:45;10.48;;;6.20;;
56997;SDS011;42890;44.244;22.530;2022-07-05T11:32:04;11.13;;;6.63;;
56997;SDS011;42890;44.244;22.530;2022-07-05T11:34:34;9.43;;;6.60;;
56997;SDS011;42890;44.244;22.530;2022-07-05T11:37:33;9.07;;;6.20;;
56997;SDS011;42890;44.244;22.530;2022-07-05T11:42:35;7.70;;;6.28;;
56997;SDS011;42890;44.244;22.530;2022-07-05T11:45:07;8.95;;;6.45;;
56997;SDS011;42890;44.244;22.530;2022-07-05T11:47:34;7.72;;;6.70;;
56997;SDS011;42890;44.244;22.530;2022-07-05T11:50:00;8.10;;;6.55;;
56997;SDS011;42890;44.244;22.530;2022-07-05T11:52:31;11.27;;;6.10;;
56997;SDS011;42890;44.244;22.530;2022-07-05T11:54:57;6.88;;;6.18;;
56997;SDS011;42890;44.244;22.530;2022-07-05T11:57:24;10.02;;;6.85;;
56997;SDS011;42890;44.244;22.530;2022-07-05T11:59:50;6.75;;;6.00;;
56997;SDS011;42890;44.244;22.530;2022-07-05T12:02:17;13.95;;;6.55;;
56997;SDS011;42890;44.244;22.530;2022-07-05T12:04:47;8.60;;;7.00;;
56997;SDS011;42890;44.244;22.530;2022-07-05T12:07:32;10.05;;;6.63;;
56997;SDS011;42890;44.244;22.530;2022-07-05T12:09:59;10.10;;;6.57;;
56997;SDS011;42890;44.244;22.530;2022-07-05T12:12:43;13.80;;;7.20;;
56997;SDS011;42890;44.244;22.530;2022-07-05T12:15:10;10.85;;;6.28;;
56997;SDS011;42890;44.244;22.530;2022-07-05T12:17:37;9.68;;;6.35;;
56997;SDS011;42890;44.244;22.530;2022-07-05T12:20:04;10.15;;;6.40;;
56997;SDS011;42890;44.244;22.530;2022-07-05T12:22:31;12.73;;;6.32;;
56997;SDS011;42890;44.244;22.530;2022-07-05T12:24:58;11.75;;;6.30;;
56997;SDS011;42890;44.244;22.530;2022-07-05T12:27:28;12.10;;;6.65;;
56997;SDS011;42890;44.244;22.530;2022-07-05T12:29:54;15.50;;;6.10;;
56997;SDS011;42890;44.244;22.530;2022-07-05T12:32:21;10.60;;;6.55;;
56997;SDS011;42890;44.244;22.530;2022-07-05T12:34:47;7.57;;;6.50;;
56997;SDS011;42890;44.244;22.530;2022-07-05T12:37:23;7.05;;;6.35;;
56997;SDS011;42890;44.244;22.530;2022-07-05T12:39:50;9.35;;;6.60;;
56997;SDS011;42890;44.244;22.530;2022-07-05T12:42:32;8.77;;;6.93;;
56997;SDS011;42890;44.244;22.530;2022-07-05T12:45:14;7.72;;;6.57;;
56997;SDS011;42890;44.244;22.530;2022-07-05T12:47:54;8.27;;;6.72;;
56997;SDS011;42890;44.244;22.530;2022-07-05T12:50:28;9.95;;;6.53;;
56997;SDS011;42890;44.244;22.530;2022-07-05T12:52:56;11.23;;;6.00;;
56997;SDS011;42890;44.244;22.530;2022-07-05T12:55:23;10.93;;;5.88;;
56997;SDS011;42890;44.244;22.530;2022-07-05T12:58:08;10.30;;;5.75;;
56997;SDS011;42890;44.244;22.530;2022-07-05T13:00:34;7.60;;;6.32;;
56997;SDS011;42890;44.244;22.530;2022-07-05T13:03:00;10.32;;;6.40;;
56997;SDS011;42890;44.244;22.530;2022-07-05T13:05:26;10.55;;;6.72;;
56997;SDS011;42890;44.244;22.530;2022-07-05T13:07:53;10.80;;;7.28;;
56997;SDS011;42890;44.244;22.530;2022-07-05T13:10:23;13.88;;;6.65;;
56997;SDS011;42890;44.244;22.530;2022-07-05T13:12:49;7.28;;;6.32;;
56997;SDS011;42890;44.244;22.530;2022-07-05T13:15:16;10.30;;;7.15;;
56997;SDS011;42890;44.244;22.530;2022-07-05T13:17:42;9.45;;;6.45;;
56997;SDS011;42890;44.244;22.530;2022-07-05T13:20:08;10.07;;;6.55;;
56997;SDS011;42890;44.244;22.530;2022-07-05T13:22:34;11.77;;;6.53;;
56997;SDS011;42890;44.244;22.530;2022-07-05T13:25:01;12.05;;;6.55;;
56997;SDS011;42890;44.244;22.530;2022-07-05T13:27:28;10.90;;;6.85;;
56997;SDS011;42890;44.244;22.530;2022-07-05T13:29:54;12.18;;;6.65;;
56997;SDS011;42890;44.244;22.530;2022-07-05T13:32:21;11.27;;;6.57;;
56997;SDS011;42890;44.244;22.530;2022-07-05T13:34:47;11.93;;;6.40;;
56997;SDS011;42890;44.244;22.530;2022-07-05T13:37:14;11.43;;;6.43;;
56997;SDS011;42890;44.244;22.530;2022-07-05T13:39:40;11.90;;;5.90;;
56997;SDS011;42890;44.244;22.530;2022-07-05T13:42:06;8.45;;;6.13;;
56997;SDS011;42890;44.244;22.530;2022-07-05T13:44:33;12.77;;;6.25;;
56997;SDS011;42890;44.244;22.530;2022-07-05T13:47:00;7.22;;;5.80;;
56997;SDS011;42890;44.244;22.530;2022-07-05T13:49:26;8.80;;;6.03;;
56997;SDS011;42890;44.244;22.530;2022-07-05T13:51:52;8.90;;;5.93;;
56997;SDS011;42890;44.244;22.530;2022-07-05T13:54:18;9.82;;;5.63;;
56997;SDS011;42890;44.244;22.530;2022-07-05T13:56:44;7.85;;;5.50;;
56997;SDS011;42890;44.244;22.530;2022-07-05T13:59:10;6.97;;;4.95;;
56997;SDS011;42890;44.244;22.530;2022-07-05T14:01:36;8.52;;;5.68;;
56997;SDS011;42890;44.244;22.530;2022-07-05T14:04:04;5.65;;;4.97;;
56997;SDS011;42890;44.244;22.530;2022-07-05T14:06:30;6.82;;;5.38;;
56997;SDS011;42890;44.244;22.530;2022-07-05T14:08:57;8.90;;;5.85;;
56997;SDS011;42890;44.244;22.530;2022-07-05T14:11:24;8.80;;;5.40;;
56997;SDS011;42890;44.244;22.530;2022-07-05T14:13:52;12.55;;;5.80;;
56997;SDS011;42890;44.244;22.530;2022-07-05T14:16:18;8.48;;;5.45;;
56997;SDS011;42890;44.244;22.530;2022-07-05T14:18:44;11.07;;;6.00;;
56997;SDS011;42890;44.244;22.530;2022-07-05T14:21:11;10.43;;;5.50;;
56997;SDS011;42890;44.244;22.530;2022-07-05T14:23:43;12.13;;;5.18;;
56997;SDS011;42890;44.244;22.530;2022-07-05T14:26:12;8.95;;;5.18;;
56997;SDS011;42890;44.244;22.530;2022-07-05T14:28:38;7.75;;;5.47;;
56997;SDS011;42890;44.244;22.530;2022-07-05T14:31:04;8.65;;;5.35;;
56997;SDS011;42890;44.244;22.530;2022-07-05T14:33:30;7.45;;;5.25;;
56997;SDS011;42890;44.244;22.530;2022-07-05T14:35:56;9.30;;;5.65;;
56997;SDS011;42890;44.244;22.530;2022-07-05T14:38:23;8.48;;;5.20;;
56997;SDS011;42890;44.244;22.530;2022-07-05T14:40:49;8.05;;;4.93;;
56997;SDS011;42890;44.244;22.530;2022-07-05T14:43:15;6.40;;;4.38;;
56997;SDS011;42890;44.244;22.530;2022-07-05T14:45:41;8.55;;;4.53;;